sensor_id;sensor_type;location;lat;lon;timestamp;temperature;humidity
12111;DHT22;6119;52.372;8.990;2023-07-20T00:01:36;18.10;99.90
12111;DHT22;6119;52.372;8.990;2023-07-20T00:04:23;18.10;99.90
12111;DHT22;6119;52.372;8.990;2023-07-20T00:07:10;18.20;99.90
12111;DHT22;6119;52.372;8.990;2023-07-20T00:09:57;18.20;99.90
12111;DHT22;6119;52.372;8.990;2023-07-20T00:12:43;18.20;99.90
12111;DHT22;6119;52.372;8.990;2023-07-20T00:15:33;18.20;99.90
12111;DHT22;6119;52.372;8.990;2023-07-20T00:18:21;18.30;99.90
12111;DHT22;6119;52.372;8.990;2023-07-20T00:21:08;18.30;99.90
12111;DHT22;6119;52.372;8.990;2023-07-20T00:23:54;18.30;99.90
12111;DHT22;6119;52.372;8.990;2023-07-20T00:26:41;18.30;99.90
12111;DHT22;6119;52.372;8.990;2023-07-20T00:29:27;18.10;99.90
12111;DHT22;6119;52.372;8.990;2023-07-20T00:32:14;18.10;99.90
12111;DHT22;6119;52.372;8.990;2023-07-20T00:35:03;18.20;99.90
12111;DHT22;6119;52.372;8.990;2023-07-20T00:37:49;18.20;99.90
12111;DHT22;6119;52.372;8.990;2023-07-20T00:40:36;18.20;99.90
12111;DHT22;6119;52.372;8.990;2023-07-20T00:43:23;18.20;99.90
12111;DHT22;6119;52.372;8.990;2023-07-20T00:46:09;18.20;99.90
12111;DHT22;6119;52.372;8.990;2023-07-20T00:48:57;18.20;99.90
12111;DHT22;6119;52.372;8.990;2023-07-20T00:51:44;18.10;99.90
12111;DHT22;6119;52.372;8.990;2023-07-20T00:54:31;18.20;99.90
12111;DHT22;6119;52.372;8.990;2023-07-20T00:57:19;18.00;99.90
12111;DHT22;6119;52.372;8.990;2023-07-20T01:00:07;18.10;99.90
12111;DHT22;6119;52.372;8.990;2023-07-20T01:02:54;18.10;99.90
12111;DHT22;6119;52.372;8.990;2023-07-20T01:05:54;18.00;99.90
12111;DHT22;6119;52.372;8.990;2023-07-20T01:08:47;18.10;99.90
12111;DHT22;6119;52.372;8.990;2023-07-20T01:11:43;18.00;99.90
12111;DHT22;6119;52.372;8.990;2023-07-20T01:14:31;18.00;99.90
12111;DHT22;6119;52.372;8.990;2023-07-20T01:17:18;18.10;99.90
12111;DHT22;6119;52.372;8.990;2023-07-20T01:20:05;18.00;99.90
12111;DHT22;6119;52.372;8.990;2023-07-20T01:26:43;18.00;99.90
12111;DHT22;6119;52.372;8.990;2023-07-20T01:29:51;18.00;99.90
12111;DHT22;6119;52.372;8.990;2023-07-20T01:32:44;18.00;99.90
12111;DHT22;6119;52.372;8.990;2023-07-20T01:35:34;18.00;99.90
12111;DHT22;6119;52.372;8.990;2023-07-20T01:38:24;17.90;99.90
12111;DHT22;6119;52.372;8.990;2023-07-20T01:41:11;17.90;99.90
12111;DHT22;6119;52.372;8.990;2023-07-20T01:43:58;17.80;99.90
12111;DHT22;6119;52.372;8.990;2023-07-20T01:46:45;17.80;99.90
12111;DHT22;6119;52.372;8.990;2023-07-20T01:49:33;17.80;99.90
12111;DHT22;6119;52.372;8.990;2023-07-20T01:52:20;17.70;99.90
12111;DHT22;6119;52.372;8.990;2023-07-20T01:55:07;17.70;99.90
12111;DHT22;6119;52.372;8.990;2023-07-20T01:57:55;17.70;99.90
12111;DHT22;6119;52.372;8.990;2023-07-20T02:00:41;17.80;99.90
12111;DHT22;6119;52.372;8.990;2023-07-20T02:03:28;17.80;99.90
12111;DHT22;6119;52.372;8.990;2023-07-20T02:06:15;17.70;99.90
12111;DHT22;6119;52.372;8.990;2023-07-20T02:09:02;17.60;99.90
12111;DHT22;6119;52.372;8.990;2023-07-20T02:11:49;17.60;99.90
12111;DHT22;6119;52.372;8.990;2023-07-20T02:14:36;17.60;99.90
12111;DHT22;6119;52.372;8.990;2023-07-20T02:17:24;17.60;99.90
12111;DHT22;6119;52.372;8.990;2023-07-20T02:20:11;17.70;99.90
12111;DHT22;6119;52.372;8.990;2023-07-20T02:22:59;17.60;99.90
12111;DHT22;6119;52.372;8.990;2023-07-20T02:25:45;17.60;99.90
12111;DHT22;6119;52.372;8.990;2023-07-20T02:28:32;17.60;99.90
12111;DHT22;6119;52.372;8.990;2023-07-20T02:31:19;17.60;99.90
12111;DHT22;6119;52.372;8.990;2023-07-20T02:34:06;17.50;99.90
12111;DHT22;6119;52.372;8.990;2023-07-20T02:36:54;17.60;99.90
12111;DHT22;6119;52.372;8.990;2023-07-20T02:39:45;17.60;99.90
12111;DHT22;6119;52.372;8.990;2023-07-20T02:42:31;17.60;99.90
12111;DHT22;6119;52.372;8.990;2023-07-20T02:45:18;17.60;99.90
12111;DHT22;6119;52.372;8.990;2023-07-20T02:48:05;17.70;99.90
12111;DHT22;6119;52.372;8.990;2023-07-20T02:50:53;17.60;99.90
12111;DHT22;6119;52.372;8.990;2023-07-20T02:53:40;17.60;99.90
12111;DHT22;6119;52.372;8.990;2023-07-20T02:56:28;17.60;99.90
12111;DHT22;6119;52.372;8.990;2023-07-20T02:59:15;17.60;99.90
12111;DHT22;6119;52.372;8.990;2023-07-20T03:02:01;17.60;99.90
12111;DHT22;6119;52.372;8.990;2023-07-20T03:04:48;17.50;99.90
12111;DHT22;6119;52.372;8.990;2023-07-20T03:07:35;17.50;99.90
12111;DHT22;6119;52.372;8.990;2023-07-20T03:10:22;17.20;99.90
12111;DHT22;6119;52.372;8.990;2023-07-20T03:13:10;17.00;99.90
12111;DHT22;6119;52.372;8.990;2023-07-20T03:15:56;17.20;99.90
12111;DHT22;6119;52.372;8.990;2023-07-20T03:18:43;17.20;99.90
12111;DHT22;6119;52.372;8.990;2023-07-20T03:21:30;17.20;99.90
12111;DHT22;6119;52.372;8.990;2023-07-20T03:24:16;17.20;99.90
12111;DHT22;6119;52.372;8.990;2023-07-20T03:27:03;17.20;99.90
12111;DHT22;6119;52.372;8.990;2023-07-20T03:29:51;17.10;99.90
12111;DHT22;6119;52.372;8.990;2023-07-20T03:32:38;17.00;99.90
12111;DHT22;6119;52.372;8.990;2023-07-20T03:35:25;16.90;99.90
12111;DHT22;6119;52.372;8.990;2023-07-20T03:38:11;17.00;99.90
12111;DHT22;6119;52.372;8.990;2023-07-20T03:41:00;16.90;99.90
12111;DHT22;6119;52.372;8.990;2023-07-20T03:43:47;16.90;99.90
12111;DHT22;6119;52.372;8.990;2023-07-20T03:46:35;16.90;99.90
12111;DHT22;6119;52.372;8.990;2023-07-20T03:49:23;16.70;99.90
12111;DHT22;6119;52.372;8.990;2023-07-20T03:52:09;16.60;99.90
12111;DHT22;6119;52.372;8.990;2023-07-20T03:54:56;16.70;99.90
12111;DHT22;6119;52.372;8.990;2023-07-20T03:57:43;16.70;99.90
12111;DHT22;6119;52.372;8.990;2023-07-20T04:00:30;16.60;99.90
12111;DHT22;6119;52.372;8.990;2023-07-20T04:03:18;16.60;99.90
12111;DHT22;6119;52.372;8.990;2023-07-20T04:06:05;16.50;99.90
12111;DHT22;6119;52.372;8.990;2023-07-20T04:08:53;16.60;99.90
12111;DHT22;6119;52.372;8.990;2023-07-20T04:11:40;16.70;99.90
12111;DHT22;6119;52.372;8.990;2023-07-20T04:14:26;16.50;99.90
12111;DHT22;6119;52.372;8.990;2023-07-20T04:17:13;16.50;99.90
12111;DHT22;6119;52.372;8.990;2023-07-20T04:20:01;16.50;99.90
12111;DHT22;6119;52.372;8.990;2023-07-20T04:22:48;16.40;99.90
12111;DHT22;6119;52.372;8.990;2023-07-20T04:25:35;16.60;99.90
12111;DHT22;6119;52.372;8.990;2023-07-20T04:28:25;16.60;99.90
12111;DHT22;6119;52.372;8.990;2023-07-20T04:31:12;16.50;99.90
12111;DHT22;6119;52.372;8.990;2023-07-20T04:33:59;16.40;99.90
12111;DHT22;6119;52.372;8.990;2023-07-20T04:36:47;16.60;99.90
12111;DHT22;6119;52.372;8.990;2023-07-20T04:39:34;16.70;99.90
12111;DHT22;6119;52.372;8.990;2023-07-20T04:42:21;16.70;99.90
12111;DHT22;6119;52.372;8.990;2023-07-20T04:45:08;16.70;99.90
12111;DHT22;6119;52.372;8.990;2023-07-20T04:47:55;16.80;99.90
12111;DHT22;6119;52.372;8.990;2023-07-20T04:50:43;16.80;99.90
12111;DHT22;6119;52.372;8.990;2023-07-20T04:53:32;16.80;99.90
12111;DHT22;6119;52.372;8.990;2023-07-20T04:56:19;16.80;99.90
12111;DHT22;6119;52.372;8.990;2023-07-20T04:59:09;17.00;99.90
12111;DHT22;6119;52.372;8.990;2023-07-20T05:01:55;16.90;99.90
12111;DHT22;6119;52.372;8.990;2023-07-20T05:04:42;16.80;99.90
12111;DHT22;6119;52.372;8.990;2023-07-20T05:07:29;16.80;99.90
12111;DHT22;6119;52.372;8.990;2023-07-20T05:10:17;16.70;99.90
12111;DHT22;6119;52.372;8.990;2023-07-20T05:13:04;16.80;99.90
12111;DHT22;6119;52.372;8.990;2023-07-20T05:15:51;16.70;99.90
12111;DHT22;6119;52.372;8.990;2023-07-20T05:18:38;16.60;99.90
12111;DHT22;6119;52.372;8.990;2023-07-20T05:21:25;16.80;99.90
12111;DHT22;6119;52.372;8.990;2023-07-20T05:24:11;16.80;99.90
12111;DHT22;6119;52.372;8.990;2023-07-20T05:26:59;16.70;99.90
12111;DHT22;6119;52.372;8.990;2023-07-20T05:29:46;16.80;99.90
12111;DHT22;6119;52.372;8.990;2023-07-20T05:32:33;16.80;99.90
12111;DHT22;6119;52.372;8.990;2023-07-20T05:35:20;16.80;99.90
12111;DHT22;6119;52.372;8.990;2023-07-20T05:38:08;16.60;99.90
12111;DHT22;6119;52.372;8.990;2023-07-20T05:40:59;16.60;99.90
12111;DHT22;6119;52.372;8.990;2023-07-20T05:43:48;16.70;99.90
12111;DHT22;6119;52.372;8.990;2023-07-20T05:46:35;16.60;99.90
12111;DHT22;6119;52.372;8.990;2023-07-20T05:49:39;16.80;99.90
12111;DHT22;6119;52.372;8.990;2023-07-20T05:52:26;16.90;99.90
12111;DHT22;6119;52.372;8.990;2023-07-20T05:55:12;16.80;99.90
12111;DHT22;6119;52.372;8.990;2023-07-20T05:57:59;16.60;99.90
12111;DHT22;6119;52.372;8.990;2023-07-20T06:00:49;16.60;99.90
12111;DHT22;6119;52.372;8.990;2023-07-20T06:03:36;16.60;99.90
12111;DHT22;6119;52.372;8.990;2023-07-20T06:06:23;16.50;99.90
12111;DHT22;6119;52.372;8.990;2023-07-20T06:09:10;16.60;99.90
12111;DHT22;6119;52.372;8.990;2023-07-20T06:11:57;16.70;99.90
12111;DHT22;6119;52.372;8.990;2023-07-20T06:14:44;16.70;99.90
12111;DHT22;6119;52.372;8.990;2023-07-20T06:17:33;16.60;99.90
12111;DHT22;6119;52.372;8.990;2023-07-20T06:20:22;16.60;99.90
12111;DHT22;6119;52.372;8.990;2023-07-20T06:23:09;16.80;99.90
12111;DHT22;6119;52.372;8.990;2023-07-20T06:25:56;16.70;99.90
12111;DHT22;6119;52.372;8.990;2023-07-20T06:28:43;16.80;99.90
12111;DHT22;6119;52.372;8.990;2023-07-20T06:31:29;16.90;99.90
12111;DHT22;6119;52.372;8.990;2023-07-20T06:34:18;16.80;99.90
12111;DHT22;6119;52.372;8.990;2023-07-20T06:37:08;16.80;99.90
12111;DHT22;6119;52.372;8.990;2023-07-20T06:39:55;16.80;99.90
12111;DHT22;6119;52.372;8.990;2023-07-20T06:42:45;16.80;99.90
12111;DHT22;6119;52.372;8.990;2023-07-20T06:45:34;16.90;99.90
12111;DHT22;6119;52.372;8.990;2023-07-20T06:48:22;17.00;99.90
12111;DHT22;6119;52.372;8.990;2023-07-20T06:51:09;17.00;99.90
12111;DHT22;6119;52.372;8.990;2023-07-20T06:53:56;17.00;99.90
12111;DHT22;6119;52.372;8.990;2023-07-20T06:56:43;17.10;99.90
12111;DHT22;6119;52.372;8.990;2023-07-20T06:59:32;17.10;99.90
12111;DHT22;6119;52.372;8.990;2023-07-20T07:02:19;17.10;99.90
12111;DHT22;6119;52.372;8.990;2023-07-20T07:05:06;17.10;99.90
12111;DHT22;6119;52.372;8.990;2023-07-20T07:07:57;17.30;99.90
12111;DHT22;6119;52.372;8.990;2023-07-20T07:10:44;17.20;99.90
12111;DHT22;6119;52.372;8.990;2023-07-20T07:13:31;17.30;99.90
12111;DHT22;6119;52.372;8.990;2023-07-20T07:16:17;17.30;99.90
12111;DHT22;6119;52.372;8.990;2023-07-20T07:19:05;17.40;99.90
12111;DHT22;6119;52.372;8.990;2023-07-20T07:21:54;17.40;99.90
12111;DHT22;6119;52.372;8.990;2023-07-20T07:24:46;17.60;99.90
12111;DHT22;6119;52.372;8.990;2023-07-20T07:27:33;17.80;99.90
12111;DHT22;6119;52.372;8.990;2023-07-20T07:30:20;18.00;99.90
12111;DHT22;6119;52.372;8.990;2023-07-20T07:33:07;18.20;99.90
12111;DHT22;6119;52.372;8.990;2023-07-20T07:35:54;17.90;99.90
12111;DHT22;6119;52.372;8.990;2023-07-20T07:38:40;17.80;99.90
12111;DHT22;6119;52.372;8.990;2023-07-20T07:41:31;17.70;99.90
12111;DHT22;6119;52.372;8.990;2023-07-20T07:44:18;17.60;99.90
12111;DHT22;6119;52.372;8.990;2023-07-20T07:47:07;17.70;99.90
12111;DHT22;6119;52.372;8.990;2023-07-20T07:49:54;17.80;99.90
12111;DHT22;6119;52.372;8.990;2023-07-20T07:52:40;18.20;99.90
12111;DHT22;6119;52.372;8.990;2023-07-20T07:55:27;18.20;99.90
12111;DHT22;6119;52.372;8.990;2023-07-20T07:58:15;18.00;99.90
12111;DHT22;6119;52.372;8.990;2023-07-20T08:01:03;17.80;99.90
12111;DHT22;6119;52.372;8.990;2023-07-20T08:03:50;18.00;99.90
12111;DHT22;6119;52.372;8.990;2023-07-20T08:06:37;18.10;99.90
12111;DHT22;6119;52.372;8.990;2023-07-20T08:09:24;18.30;99.90
12111;DHT22;6119;52.372;8.990;2023-07-20T08:12:11;18.60;99.90
12111;DHT22;6119;52.372;8.990;2023-07-20T08:15:00;18.90;99.90
12111;DHT22;6119;52.372;8.990;2023-07-20T08:17:47;18.70;99.90
12111;DHT22;6119;52.372;8.990;2023-07-20T08:20:37;18.60;99.90
12111;DHT22;6119;52.372;8.990;2023-07-20T08:23:24;18.40;99.90
12111;DHT22;6119;52.372;8.990;2023-07-20T08:26:11;18.30;99.90
12111;DHT22;6119;52.372;8.990;2023-07-20T08:28:58;18.40;99.90
12111;DHT22;6119;52.372;8.990;2023-07-20T08:31:46;18.70;99.90
12111;DHT22;6119;52.372;8.990;2023-07-20T08:34:34;18.80;99.90
12111;DHT22;6119;52.372;8.990;2023-07-20T08:37:22;18.90;99.90
12111;DHT22;6119;52.372;8.990;2023-07-20T08:40:09;18.90;99.90
12111;DHT22;6119;52.372;8.990;2023-07-20T08:42:58;18.90;99.90
12111;DHT22;6119;52.372;8.990;2023-07-20T08:45:46;18.80;99.90
12111;DHT22;6119;52.372;8.990;2023-07-20T08:48:36;18.80;99.90
12111;DHT22;6119;52.372;8.990;2023-07-20T08:51:25;18.90;99.90
12111;DHT22;6119;52.372;8.990;2023-07-20T08:54:12;19.20;99.90
12111;DHT22;6119;52.372;8.990;2023-07-20T08:57:02;19.40;99.90
12111;DHT22;6119;52.372;8.990;2023-07-20T08:59:50;19.60;99.90
12111;DHT22;6119;52.372;8.990;2023-07-20T09:02:39;19.70;99.90
12111;DHT22;6119;52.372;8.990;2023-07-20T09:05:28;19.50;99.90
12111;DHT22;6119;52.372;8.990;2023-07-20T09:08:18;19.30;99.90
12111;DHT22;6119;52.372;8.990;2023-07-20T09:11:04;19.40;99.90
12111;DHT22;6119;52.372;8.990;2023-07-20T09:14:02;19.80;99.90
12111;DHT22;6119;52.372;8.990;2023-07-20T09:16:51;19.90;99.90
12111;DHT22;6119;52.372;8.990;2023-07-20T09:19:38;20.20;99.90
12111;DHT22;6119;52.372;8.990;2023-07-20T09:22:31;20.20;99.90
12111;DHT22;6119;52.372;8.990;2023-07-20T09:25:18;20.00;99.90
12111;DHT22;6119;52.372;8.990;2023-07-20T09:28:06;20.00;99.90
12111;DHT22;6119;52.372;8.990;2023-07-20T09:30:54;20.00;99.90
12111;DHT22;6119;52.372;8.990;2023-07-20T09:33:42;19.80;99.90
12111;DHT22;6119;52.372;8.990;2023-07-20T09:36:33;19.80;99.90
12111;DHT22;6119;52.372;8.990;2023-07-20T09:39:25;19.80;99.90
12111;DHT22;6119;52.372;8.990;2023-07-20T09:42:15;20.10;99.90
12111;DHT22;6119;52.372;8.990;2023-07-20T09:45:07;20.30;99.90
12111;DHT22;6119;52.372;8.990;2023-07-20T09:48:03;20.30;99.90
12111;DHT22;6119;52.372;8.990;2023-07-20T09:50:53;20.20;99.90
12111;DHT22;6119;52.372;8.990;2023-07-20T09:53:40;20.20;99.90
12111;DHT22;6119;52.372;8.990;2023-07-20T09:56:30;20.10;99.90
12111;DHT22;6119;52.372;8.990;2023-07-20T09:59:17;20.30;99.90
12111;DHT22;6119;52.372;8.990;2023-07-20T10:02:09;20.50;99.90
12111;DHT22;6119;52.372;8.990;2023-07-20T10:05:02;20.10;99.90
12111;DHT22;6119;52.372;8.990;2023-07-20T10:07:50;20.30;99.90
12111;DHT22;6119;52.372;8.990;2023-07-20T10:10:58;20.40;99.90
12111;DHT22;6119;52.372;8.990;2023-07-20T10:13:51;20.20;99.90
12111;DHT22;6119;52.372;8.990;2023-07-20T10:16:44;20.20;99.90
12111;DHT22;6119;52.372;8.990;2023-07-20T10:19:40;20.30;99.90
12111;DHT22;6119;52.372;8.990;2023-07-20T10:22:37;20.10;99.90
12111;DHT22;6119;52.372;8.990;2023-07-20T10:25:27;20.30;99.90
12111;DHT22;6119;52.372;8.990;2023-07-20T10:28:14;20.30;99.90
12111;DHT22;6119;52.372;8.990;2023-07-20T10:31:03;20.10;99.90
12111;DHT22;6119;52.372;8.990;2023-07-20T10:33:52;20.10;99.90
12111;DHT22;6119;52.372;8.990;2023-07-20T10:36:44;20.10;99.90
12111;DHT22;6119;52.372;8.990;2023-07-20T10:39:33;20.20;99.90
12111;DHT22;6119;52.372;8.990;2023-07-20T10:42:20;20.10;99.90
12111;DHT22;6119;52.372;8.990;2023-07-20T10:45:08;20.00;99.90
12111;DHT22;6119;52.372;8.990;2023-07-20T10:47:56;20.00;99.90
12111;DHT22;6119;52.372;8.990;2023-07-20T10:50:43;20.20;99.90
12111;DHT22;6119;52.372;8.990;2023-07-20T10:53:30;20.20;99.90
12111;DHT22;6119;52.372;8.990;2023-07-20T10:56:20;20.40;99.90
12111;DHT22;6119;52.372;8.990;2023-07-20T10:59:18;20.50;99.90
12111;DHT22;6119;52.372;8.990;2023-07-20T11:02:06;20.80;99.90
12111;DHT22;6119;52.372;8.990;2023-07-20T11:04:55;21.30;99.90
12111;DHT22;6119;52.372;8.990;2023-07-20T11:07:44;21.50;99.90
12111;DHT22;6119;52.372;8.990;2023-07-20T11:10:33;21.60;99.90
12111;DHT22;6119;52.372;8.990;2023-07-20T11:13:21;21.40;99.90
12111;DHT22;6119;52.372;8.990;2023-07-20T11:16:10;20.90;99.90
12111;DHT22;6119;52.372;8.990;2023-07-20T11:18:57;20.90;99.90
12111;DHT22;6119;52.372;8.990;2023-07-20T11:21:47;20.60;99.90
12111;DHT22;6119;52.372;8.990;2023-07-20T11:24:47;20.60;99.90
12111;DHT22;6119;52.372;8.990;2023-07-20T11:27:44;20.60;99.90
12111;DHT22;6119;52.372;8.990;2023-07-20T11:30:32;20.70;99.90
12111;DHT22;6119;52.372;8.990;2023-07-20T11:33:20;21.20;99.90
12111;DHT22;6119;52.372;8.990;2023-07-20T11:36:08;21.50;99.90
12111;DHT22;6119;52.372;8.990;2023-07-20T11:39:00;21.60;99.90
12111;DHT22;6119;52.372;8.990;2023-07-20T11:41:49;21.30;99.90
12111;DHT22;6119;52.372;8.990;2023-07-20T11:44:35;21.00;99.90
12111;DHT22;6119;52.372;8.990;2023-07-20T11:47:22;20.90;99.90
12111;DHT22;6119;52.372;8.990;2023-07-20T11:50:15;20.80;99.90
12111;DHT22;6119;52.372;8.990;2023-07-20T11:53:02;20.60;99.90
12111;DHT22;6119;52.372;8.990;2023-07-20T11:55:50;20.80;99.90
12111;DHT22;6119;52.372;8.990;2023-07-20T11:58:42;20.90;99.90
12111;DHT22;6119;52.372;8.990;2023-07-20T12:01:29;21.40;99.90
12111;DHT22;6119;52.372;8.990;2023-07-20T12:04:18;22.00;99.90
12111;DHT22;6119;52.372;8.990;2023-07-20T12:07:07;22.20;99.90
12111;DHT22;6119;52.372;8.990;2023-07-20T12:10:04;22.70;99.90
12111;DHT22;6119;52.372;8.990;2023-07-20T12:12:52;22.60;99.90
12111;DHT22;6119;52.372;8.990;2023-07-20T12:15:39;22.20;99.90
12111;DHT22;6119;52.372;8.990;2023-07-20T12:18:34;22.20;99.90
12111;DHT22;6119;52.372;8.990;2023-07-20T12:21:22;21.90;99.90
12111;DHT22;6119;52.372;8.990;2023-07-20T12:24:10;21.70;99.90
12111;DHT22;6119;52.372;8.990;2023-07-20T12:26:58;21.30;99.90
12111;DHT22;6119;52.372;8.990;2023-07-20T12:29:47;21.00;99.90
12111;DHT22;6119;52.372;8.990;2023-07-20T12:32:34;20.90;99.90
12111;DHT22;6119;52.372;8.990;2023-07-20T12:35:21;20.90;99.90
12111;DHT22;6119;52.372;8.990;2023-07-20T12:38:08;21.10;99.90
12111;DHT22;6119;52.372;8.990;2023-07-20T12:40:54;21.20;99.90
12111;DHT22;6119;52.372;8.990;2023-07-20T12:43:42;21.60;99.90
12111;DHT22;6119;52.372;8.990;2023-07-20T12:46:30;21.70;99.90
12111;DHT22;6119;52.372;8.990;2023-07-20T12:49:20;22.10;99.90
12111;DHT22;6119;52.372;8.990;2023-07-20T12:52:07;22.10;99.90
12111;DHT22;6119;52.372;8.990;2023-07-20T12:54:54;22.30;99.90
12111;DHT22;6119;52.372;8.990;2023-07-20T12:57:40;22.70;99.90
12111;DHT22;6119;52.372;8.990;2023-07-20T13:00:27;23.10;99.90
12111;DHT22;6119;52.372;8.990;2023-07-20T13:03:15;23.40;99.90
12111;DHT22;6119;52.372;8.990;2023-07-20T13:06:07;23.60;99.90
12111;DHT22;6119;52.372;8.990;2023-07-20T13:08:57;23.70;99.50
12111;DHT22;6119;52.372;8.990;2023-07-20T13:11:44;23.30;97.40
12111;DHT22;6119;52.372;8.990;2023-07-20T13:14:31;23.70;97.50
12111;DHT22;6119;52.372;8.990;2023-07-20T13:17:17;23.80;96.50
12111;DHT22;6119;52.372;8.990;2023-07-20T13:20:09;23.70;96.60
12111;DHT22;6119;52.372;8.990;2023-07-20T13:22:56;23.40;94.60
12111;DHT22;6119;52.372;8.990;2023-07-20T13:25:43;23.40;94.80
12111;DHT22;6119;52.372;8.990;2023-07-20T13:28:30;22.90;94.30
12111;DHT22;6119;52.372;8.990;2023-07-20T13:31:16;23.10;93.60
12111;DHT22;6119;52.372;8.990;2023-07-20T13:34:03;23.30;95.10
12111;DHT22;6119;52.372;8.990;2023-07-20T13:36:54;23.10;95.30
12111;DHT22;6119;52.372;8.990;2023-07-20T13:39:41;23.80;95.00
12111;DHT22;6119;52.372;8.990;2023-07-20T13:42:28;23.80;95.00
12111;DHT22;6119;52.372;8.990;2023-07-20T13:45:15;23.10;94.70
12111;DHT22;6119;52.372;8.990;2023-07-20T13:48:02;23.60;94.90
12111;DHT22;6119;52.372;8.990;2023-07-20T13:50:51;23.90;95.30
12111;DHT22;6119;52.372;8.990;2023-07-20T13:53:42;23.30;95.20
12111;DHT22;6119;52.372;8.990;2023-07-20T13:56:34;23.20;96.20
12111;DHT22;6119;52.372;8.990;2023-07-20T13:59:22;23.00;97.80
12111;DHT22;6119;52.372;8.990;2023-07-20T14:02:09;23.10;98.50
12111;DHT22;6119;52.372;8.990;2023-07-20T14:04:59;23.00;97.50
12111;DHT22;6119;52.372;8.990;2023-07-20T14:07:49;22.90;98.00
12111;DHT22;6119;52.372;8.990;2023-07-20T14:10:37;22.80;97.90
12111;DHT22;6119;52.372;8.990;2023-07-20T14:13:27;22.60;98.50
12111;DHT22;6119;52.372;8.990;2023-07-20T14:16:31;22.30;98.40
12111;DHT22;6119;52.372;8.990;2023-07-20T14:19:18;22.20;98.40
12111;DHT22;6119;52.372;8.990;2023-07-20T14:22:05;22.10;99.00
12111;DHT22;6119;52.372;8.990;2023-07-20T14:24:52;22.10;98.60
12111;DHT22;6119;52.372;8.990;2023-07-20T14:27:41;21.90;99.60
12111;DHT22;6119;52.372;8.990;2023-07-20T14:30:29;21.70;99.70
12111;DHT22;6119;52.372;8.990;2023-07-20T14:33:16;21.80;99.90
12111;DHT22;6119;52.372;8.990;2023-07-20T14:36:03;21.60;99.90
12111;DHT22;6119;52.372;8.990;2023-07-20T14:38:50;21.70;99.90
12111;DHT22;6119;52.372;8.990;2023-07-20T14:41:37;21.80;99.90
12111;DHT22;6119;52.372;8.990;2023-07-20T14:44:24;21.70;99.80
12111;DHT22;6119;52.372;8.990;2023-07-20T14:47:11;21.30;98.90
12111;DHT22;6119;52.372;8.990;2023-07-20T14:50:00;21.00;99.80
12111;DHT22;6119;52.372;8.990;2023-07-20T14:52:47;21.00;99.90
12111;DHT22;6119;52.372;8.990;2023-07-20T14:55:34;21.00;99.90
12111;DHT22;6119;52.372;8.990;2023-07-20T14:58:20;21.10;99.90
12111;DHT22;6119;52.372;8.990;2023-07-20T15:01:09;21.30;99.90
12111;DHT22;6119;52.372;8.990;2023-07-20T15:03:56;21.30;99.90
12111;DHT22;6119;52.372;8.990;2023-07-20T15:06:44;21.30;99.90
12111;DHT22;6119;52.372;8.990;2023-07-20T15:09:30;21.00;99.90
12111;DHT22;6119;52.372;8.990;2023-07-20T15:12:19;21.20;99.90
12111;DHT22;6119;52.372;8.990;2023-07-20T15:15:07;21.20;99.90
12111;DHT22;6119;52.372;8.990;2023-07-20T15:17:55;21.20;99.90
12111;DHT22;6119;52.372;8.990;2023-07-20T15:20:42;21.20;99.90
12111;DHT22;6119;52.372;8.990;2023-07-20T15:23:30;21.10;99.90
12111;DHT22;6119;52.372;8.990;2023-07-20T15:26:16;21.00;99.90
12111;DHT22;6119;52.372;8.990;2023-07-20T15:29:03;21.10;99.90
12111;DHT22;6119;52.372;8.990;2023-07-20T15:31:50;21.20;99.90
12111;DHT22;6119;52.372;8.990;2023-07-20T15:34:40;21.20;99.90
12111;DHT22;6119;52.372;8.990;2023-07-20T15:37:27;21.20;99.90
12111;DHT22;6119;52.372;8.990;2023-07-20T15:40:14;21.00;99.90
12111;DHT22;6119;52.372;8.990;2023-07-20T15:43:01;21.10;99.90
12111;DHT22;6119;52.372;8.990;2023-07-20T15:49:37;21.20;99.90
12111;DHT22;6119;52.372;8.990;2023-07-20T15:52:25;21.20;99.90
12111;DHT22;6119;52.372;8.990;2023-07-20T15:55:15;21.40;99.90
12111;DHT22;6119;52.372;8.990;2023-07-20T15:58:02;21.50;99.90
12111;DHT22;6119;52.372;8.990;2023-07-20T16:00:53;21.80;99.90
12111;DHT22;6119;52.372;8.990;2023-07-20T16:03:40;21.90;99.90
12111;DHT22;6119;52.372;8.990;2023-07-20T16:06:27;22.00;99.90
12111;DHT22;6119;52.372;8.990;2023-07-20T16:09:15;22.10;99.90
12111;DHT22;6119;52.372;8.990;2023-07-20T16:12:03;22.30;99.90
12111;DHT22;6119;52.372;8.990;2023-07-20T16:14:50;21.90;99.90
12111;DHT22;6119;52.372;8.990;2023-07-20T16:17:39;21.80;99.90
12111;DHT22;6119;52.372;8.990;2023-07-20T16:20:26;21.80;99.90
12111;DHT22;6119;52.372;8.990;2023-07-20T16:23:12;22.00;99.90
12111;DHT22;6119;52.372;8.990;2023-07-20T16:26:01;22.30;99.90
12111;DHT22;6119;52.372;8.990;2023-07-20T16:28:47;22.70;99.90
12111;DHT22;6119;52.372;8.990;2023-07-20T16:31:34;22.80;99.90
12111;DHT22;6119;52.372;8.990;2023-07-20T16:34:21;22.60;99.90
12111;DHT22;6119;52.372;8.990;2023-07-20T16:37:09;22.70;99.90
12111;DHT22;6119;52.372;8.990;2023-07-20T16:39:58;23.00;99.90
12111;DHT22;6119;52.372;8.990;2023-07-20T16:42:48;23.00;99.90
12111;DHT22;6119;52.372;8.990;2023-07-20T16:45:38;22.60;99.90
12111;DHT22;6119;52.372;8.990;2023-07-20T16:48:24;22.70;99.90
12111;DHT22;6119;52.372;8.990;2023-07-20T16:51:12;22.40;99.90
12111;DHT22;6119;52.372;8.990;2023-07-20T16:53:58;22.40;99.90
12111;DHT22;6119;52.372;8.990;2023-07-20T16:56:45;22.40;99.90
12111;DHT22;6119;52.372;8.990;2023-07-20T16:59:33;22.40;99.90
12111;DHT22;6119;52.372;8.990;2023-07-20T17:02:20;22.70;99.90
12111;DHT22;6119;52.372;8.990;2023-07-20T17:05:08;23.10;99.90
12111;DHT22;6119;52.372;8.990;2023-07-20T17:07:55;23.30;99.90
12111;DHT22;6119;52.372;8.990;2023-07-20T17:10:42;23.10;99.90
12111;DHT22;6119;52.372;8.990;2023-07-20T17:13:29;23.40;99.90
12111;DHT22;6119;52.372;8.990;2023-07-20T17:16:19;23.40;99.90
12111;DHT22;6119;52.372;8.990;2023-07-20T17:19:06;22.90;99.60
12111;DHT22;6119;52.372;8.990;2023-07-20T17:21:55;23.20;99.90
12111;DHT22;6119;52.372;8.990;2023-07-20T17:24:42;23.00;99.90
12111;DHT22;6119;52.372;8.990;2023-07-20T17:27:32;22.70;99.90
12111;DHT22;6119;52.372;8.990;2023-07-20T17:30:39;22.50;99.90
12111;DHT22;6119;52.372;8.990;2023-07-20T17:33:27;22.50;99.90
12111;DHT22;6119;52.372;8.990;2023-07-20T17:36:14;22.40;99.90
12111;DHT22;6119;52.372;8.990;2023-07-20T17:39:05;22.30;99.90
12111;DHT22;6119;52.372;8.990;2023-07-20T17:41:52;22.20;99.90
12111;DHT22;6119;52.372;8.990;2023-07-20T17:44:40;22.00;99.90
12111;DHT22;6119;52.372;8.990;2023-07-20T17:47:27;22.00;99.90
12111;DHT22;6119;52.372;8.990;2023-07-20T17:50:15;22.00;99.90
12111;DHT22;6119;52.372;8.990;2023-07-20T17:53:02;22.00;99.90
12111;DHT22;6119;52.372;8.990;2023-07-20T17:55:49;21.90;99.90
12111;DHT22;6119;52.372;8.990;2023-07-20T17:58:35;21.80;99.90
12111;DHT22;6119;52.372;8.990;2023-07-20T18:01:22;21.80;99.90
12111;DHT22;6119;52.372;8.990;2023-07-20T18:04:09;21.80;99.90
12111;DHT22;6119;52.372;8.990;2023-07-20T18:06:57;21.70;99.90